首页
METAR-TAF:

METAR-TAF

机场 :

杜布罗夫尼克机场

杜布羅夫尼克, 克罗地亚

纬度: 42-34N, 经度: 018-16E, 海拔: 157米

当前天气观测

该预报发布于33分钟前的13:30 UTC
风速26节,风向东转东南
温度 14°C
湿度 77%
气压 1008 hPa
能见度10公里或以上
散云层高于2600英尺
多云层高于4500英尺

METAR: LDDU 031330Z 12026KT 9999 SCT026 BKN045 14/10 Q1008 TEMPO 13025G35KT

时间: 15:03 (14:03 UTC)

预报

该预报发布于2小时和38分钟前的11:25 UTC
预报有效从03日的 12点(UTC)到 04日的 12点(UTC)
风速24节,风向东转东南
能见度10公里或以上
少量云层高于1000英尺
多云层高于2000英尺
短暂存在
从 03日的 12点(UTC)到 04日的 12点(UTC)
几率 40% :
短暂存在
从 03日的 12点(UTC)到 04日的 08点(UTC)
风速25节,风向东转东南,有时为35节阵风
几率 30% :
短暂存在
从 03日的 12点(UTC)到 03日的 18点(UTC)
能見度: 4000
散云层高于1000英尺
多云层高于2000英尺
雷暴, 雨

TAF: LDDU 031125Z 0312/0412 12024KT 9999 FEW010 BKN020 TX13/0312Z TN12/0403Z TEMPO 0312/0412 RA PROB40 TEMPO 0312/0408 12025G35KT PROB30 TEMPO 0312/0318 4000 TSRA SCT010 BKN020

超过4000个机场的气象观测和天气预报(METAR&TAF报告)。

可查询的气象台以黄色和红色小点在地图上表示。

将鼠标移到小点上方,可查看气象台名称。

然后点击查看天气观测和预报。

如需切换地图:点击带黑十字的绿色按钮放大地图;点击带横线的绿色按钮缩小地图;或者点击绿色箭头查看邻近地区的地图。


METAR-TAF: